sensor_id;sensor_type;location;lat;lon;timestamp;pressure;altitude;pressure_sealevel;temperature;humidity
36798;BME280;22748;8.426;99.512;2023-03-18T00:00:12;100757.34;;;28.00;57.14
36798;BME280;22748;8.426;99.512;2023-03-18T00:03:00;100761.88;;;27.93;57.07
36798;BME280;22748;8.426;99.512;2023-03-18T00:05:32;100770.97;;;27.92;57.36
36798;BME280;22748;8.426;99.512;2023-03-18T00:08:03;100775.06;;;27.88;57.30
36798;BME280;22748;8.426;99.512;2023-03-18T00:10:34;100772.81;;;27.92;57.71
36798;BME280;22748;8.426;99.512;2023-03-18T00:13:05;100776.97;;;27.94;57.89
36798;BME280;22748;8.426;99.512;2023-03-18T00:15:36;100779.06;;;27.99;57.59
36798;BME280;22748;8.426;99.512;2023-03-18T00:18:08;100784.84;;;28.02;57.51
36798;BME280;22748;8.426;99.512;2023-03-18T00:20:44;100784.44;;;28.05;57.64
36798;BME280;22748;8.426;99.512;2023-03-18T00:23:14;100789.81;;;28.05;57.08
36798;BME280;22748;8.426;99.512;2023-03-18T00:25:52;100797.47;;;28.08;57.57
36798;BME280;22748;8.426;99.512;2023-03-18T00:28:23;100795.59;;;28.09;57.67
36798;BME280;22748;8.426;99.512;2023-03-18T00:30:54;100795.41;;;28.10;58.14
36798;BME280;22748;8.426;99.512;2023-03-18T00:33:47;100796.84;;;28.06;58.32
36798;BME280;22748;8.426;99.512;2023-03-18T00:36:18;100800.56;;;28.05;58.25
36798;BME280;22748;8.426;99.512;2023-03-18T00:38:53;100799.94;;;28.03;58.61
36798;BME280;22748;8.426;99.512;2023-03-18T00:41:31;100805.53;;;28.08;58.48
36798;BME280;22748;8.426;99.512;2023-03-18T00:44:03;100804.28;;;28.11;58.87
36798;BME280;22748;8.426;99.512;2023-03-18T00:46:46;100811.97;;;28.14;58.68
36798;BME280;22748;8.426;99.512;2023-03-18T00:49:19;100806.41;;;28.16;58.58
36798;BME280;22748;8.426;99.512;2023-03-18T00:51:55;100816.31;;;28.22;59.09
36798;BME280;22748;8.426;99.512;2023-03-18T00:54:26;100814.25;;;28.24;58.70
36798;BME280;22748;8.426;99.512;2023-03-18T00:56:56;100817.19;;;28.29;58.99
36798;BME280;22748;8.426;99.512;2023-03-18T00:59:31;100806.84;;;28.33;58.99
36798;BME280;22748;8.426;99.512;2023-03-18T01:02:00;100816.16;;;28.30;58.00
36798;BME280;22748;8.426;99.512;2023-03-18T01:04:43;100825.28;;;28.36;58.40
36798;BME280;22748;8.426;99.512;2023-03-18T01:07:21;100828.38;;;28.39;58.68
36798;BME280;22748;8.426;99.512;2023-03-18T01:09:57;100829.63;;;28.43;58.83
36798;BME280;22748;8.426;99.512;2023-03-18T01:12:31;100829.25;;;28.46;59.23
36798;BME280;22748;8.426;99.512;2023-03-18T01:15:02;100833.00;;;28.52;58.27
36798;BME280;22748;8.426;99.512;2023-03-18T01:17:38;100835.50;;;28.54;59.07
36798;BME280;22748;8.426;99.512;2023-03-18T01:20:24;100843.75;;;28.52;59.28
36798;BME280;22748;8.426;99.512;2023-03-18T01:22:55;100840.25;;;28.58;59.02
36798;BME280;22748;8.426;99.512;2023-03-18T01:25:25;100831.59;;;28.63;59.45
36798;BME280;22748;8.426;99.512;2023-03-18T01:27:56;100840.91;;;28.67;59.09
36798;BME280;22748;8.426;99.512;2023-03-18T01:30:28;100845.84;;;28.70;59.30
36798;BME280;22748;8.426;99.512;2023-03-18T01:33:10;100846.72;;;28.77;59.11
36798;BME280;22748;8.426;99.512;2023-03-18T01:35:44;100851.69;;;28.80;58.69
36798;BME280;22748;8.426;99.512;2023-03-18T01:38:16;100847.56;;;28.84;58.94
36798;BME280;22748;8.426;99.512;2023-03-18T01:40:46;100851.31;;;28.90;58.37
36798;BME280;22748;8.426;99.512;2023-03-18T01:43:18;100857.09;;;28.93;58.33
36798;BME280;22748;8.426;99.512;2023-03-18T01:45:52;100853.75;;;28.91;58.58
36798;BME280;22748;8.426;99.512;2023-03-18T01:48:25;100854.63;;;28.92;58.14
36798;BME280;22748;8.426;99.512;2023-03-18T01:51:00;100853.78;;;28.98;58.54
36798;BME280;22748;8.426;99.512;2023-03-18T01:53:41;100854.22;;;29.02;58.74
36798;BME280;22748;8.426;99.512;2023-03-18T01:56:22;100845.72;;;29.05;58.64
36798;BME280;22748;8.426;99.512;2023-03-18T01:59:00;100851.38;;;29.10;57.98
36798;BME280;22748;8.426;99.512;2023-03-18T02:01:34;100849.28;;;29.12;58.20
36798;BME280;22748;8.426;99.512;2023-03-18T02:04:24;100858.38;;;29.11;57.97
36798;BME280;22748;8.426;99.512;2023-03-18T02:07:21;100855.06;;;29.16;57.69
36798;BME280;22748;8.426;99.512;2023-03-18T02:09:52;100848.88;;;29.15;56.36
36798;BME280;22748;8.426;99.512;2023-03-18T02:12:26;100856.75;;;29.23;56.38
36798;BME280;22748;8.426;99.512;2023-03-18T02:15:00;100848.47;;;29.31;55.82
36798;BME280;22748;8.426;99.512;2023-03-18T02:17:39;100852.41;;;29.36;56.05
36798;BME280;22748;8.426;99.512;2023-03-18T02:20:23;100853.03;;;29.38;55.94
36798;BME280;22748;8.426;99.512;2023-03-18T02:23:11;100856.13;;;29.35;54.89
36798;BME280;22748;8.426;99.512;2023-03-18T02:25:54;100855.94;;;29.43;55.14
36798;BME280;22748;8.426;99.512;2023-03-18T02:28:41;100855.09;;;29.49;54.92
36798;BME280;22748;8.426;99.512;2023-03-18T02:31:15;100859.66;;;29.55;54.23
36798;BME280;22748;8.426;99.512;2023-03-18T02:33:46;100858.81;;;29.61;54.24
36798;BME280;22748;8.426;99.512;2023-03-18T02:36:28;100843.91;;;29.65;53.95
36798;BME280;22748;8.426;99.512;2023-03-18T02:39:07;100857.59;;;29.70;53.82
36798;BME280;22748;8.426;99.512;2023-03-18T02:41:48;100845.97;;;29.77;53.40
36798;BME280;22748;8.426;99.512;2023-03-18T02:44:22;100855.53;;;29.79;53.58
36798;BME280;22748;8.426;99.512;2023-03-18T02:46:54;100847.63;;;29.84;53.48
36798;BME280;22748;8.426;99.512;2023-03-18T02:49:26;100862.31;;;29.88;53.36
36798;BME280;22748;8.426;99.512;2023-03-18T02:52:04;100853.81;;;29.91;52.99
36798;BME280;22748;8.426;99.512;2023-03-18T02:54:36;100852.56;;;29.94;52.44
36798;BME280;22748;8.426;99.512;2023-03-18T02:57:11;100860.41;;;30.02;52.57
36798;BME280;22748;8.426;99.512;2023-03-18T02:59:49;100858.34;;;30.04;52.86
36798;BME280;22748;8.426;99.512;2023-03-18T03:02:27;100853.56;;;30.06;52.24
36798;BME280;22748;8.426;99.512;2023-03-18T03:04:58;100857.94;;;30.07;52.03
36798;BME280;22748;8.426;99.512;2023-03-18T03:07:27;100846.34;;;30.00;52.51
36798;BME280;22748;8.426;99.512;2023-03-18T03:09:59;100856.72;;;29.97;51.22
36798;BME280;22748;8.426;99.512;2023-03-18T03:12:36;100853.00;;;29.91;51.25
36798;BME280;22748;8.426;99.512;2023-03-18T03:15:18;100852.56;;;29.94;50.60
36798;BME280;22748;8.426;99.512;2023-03-18T03:18:00;100848.41;;;30.05;50.75
36798;BME280;22748;8.426;99.512;2023-03-18T03:20:38;100846.09;;;30.15;50.93
36798;BME280;22748;8.426;99.512;2023-03-18T03:23:15;100848.97;;;30.20;50.58
36798;BME280;22748;8.426;99.512;2023-03-18T03:25:51;100849.59;;;30.22;50.75
36798;BME280;22748;8.426;99.512;2023-03-18T03:28:22;100844.00;;;30.24;50.78
36798;BME280;22748;8.426;99.512;2023-03-18T03:31:01;100841.91;;;30.26;51.01
36798;BME280;22748;8.426;99.512;2023-03-18T03:33:34;100836.31;;;30.27;50.93
36798;BME280;22748;8.426;99.512;2023-03-18T03:36:11;100833.41;;;30.29;50.50
36798;BME280;22748;8.426;99.512;2023-03-18T03:38:42;100828.25;;;30.34;49.66
36798;BME280;22748;8.426;99.512;2023-03-18T03:41:13;100832.78;;;30.40;49.53
36798;BME280;22748;8.426;99.512;2023-03-18T03:43:45;100831.69;;;30.48;49.33
36798;BME280;22748;8.426;99.512;2023-03-18T03:46:18;100830.00;;;30.53;49.62
36798;BME280;22748;8.426;99.512;2023-03-18T03:48:55;100822.09;;;30.59;49.58
36798;BME280;22748;8.426;99.512;2023-03-18T03:51:25;100827.66;;;30.64;49.02
36798;BME280;22748;8.426;99.512;2023-03-18T03:53:56;100827.84;;;30.69;48.84
36798;BME280;22748;8.426;99.512;2023-03-18T03:56:25;100820.13;;;30.72;49.45
36798;BME280;22748;8.426;99.512;2023-03-18T03:59:02;100820.28;;;30.84;48.17
36798;BME280;22748;8.426;99.512;2023-03-18T04:01:47;100815.84;;;30.96;47.82
36798;BME280;22748;8.426;99.512;2023-03-18T04:04:24;100798.13;;;31.07;47.34
36798;BME280;22748;8.426;99.512;2023-03-18T04:06:55;100808.28;;;31.12;47.53
36798;BME280;22748;8.426;99.512;2023-03-18T04:09:32;100791.66;;;31.15;47.58
36798;BME280;22748;8.426;99.512;2023-03-18T04:12:09;100793.06;;;31.17;48.01
36798;BME280;22748;8.426;99.512;2023-03-18T04:14:40;100784.97;;;31.17;47.56
36798;BME280;22748;8.426;99.512;2023-03-18T04:17:19;100782.69;;;31.21;47.90
36798;BME280;22748;8.426;99.512;2023-03-18T04:19:50;100780.13;;;31.26;47.77
36798;BME280;22748;8.426;99.512;2023-03-18T04:22:24;100773.47;;;31.29;48.40
36798;BME280;22748;8.426;99.512;2023-03-18T04:25:01;100765.63;;;31.27;48.28
36798;BME280;22748;8.426;99.512;2023-03-18T04:27:33;100759.31;;;31.33;48.16
36798;BME280;22748;8.426;99.512;2023-03-18T04:30:14;100759.22;;;31.40;47.69
36798;BME280;22748;8.426;99.512;2023-03-18T04:32:54;100758.63;;;31.45;48.03
36798;BME280;22748;8.426;99.512;2023-03-18T04:35:34;100752.91;;;31.53;48.24
36798;BME280;22748;8.426;99.512;2023-03-18T04:38:05;100753.91;;;31.59;48.08
36798;BME280;22748;8.426;99.512;2023-03-18T04:40:37;100745.59;;;31.60;48.00
36798;BME280;22748;8.426;99.512;2023-03-18T04:43:12;100743.63;;;31.67;47.86
36798;BME280;22748;8.426;99.512;2023-03-18T04:45:43;100737.53;;;31.72;47.45
36798;BME280;22748;8.426;99.512;2023-03-18T04:48:21;100737.31;;;31.73;48.17
36798;BME280;22748;8.426;99.512;2023-03-18T04:50:57;100730.44;;;31.77;48.03
36798;BME280;22748;8.426;99.512;2023-03-18T04:53:30;100722.75;;;31.74;48.21
36798;BME280;22748;8.426;99.512;2023-03-18T04:56:01;100714.44;;;31.76;48.26
36798;BME280;22748;8.426;99.512;2023-03-18T04:58:32;100719.63;;;31.77;47.84
36798;BME280;22748;8.426;99.512;2023-03-18T05:01:09;100709.44;;;31.80;48.17
36798;BME280;22748;8.426;99.512;2023-03-18T05:03:54;100706.72;;;31.80;48.30
36798;BME280;22748;8.426;99.512;2023-03-18T05:06:26;100698.16;;;31.83;48.25
36798;BME280;22748;8.426;99.512;2023-03-18T05:09:00;100701.00;;;31.88;47.66
36798;BME280;22748;8.426;99.512;2023-03-18T05:11:33;100699.66;;;31.97;47.27
36798;BME280;22748;8.426;99.512;2023-03-18T05:14:05;100690.50;;;31.98;47.58
36798;BME280;22748;8.426;99.512;2023-03-18T05:16:41;100681.59;;;31.97;47.23
36798;BME280;22748;8.426;99.512;2023-03-18T05:19:16;100682.84;;;31.95;47.24
36798;BME280;22748;8.426;99.512;2023-03-18T05:21:49;100680.91;;;32.02;46.37
36798;BME280;22748;8.426;99.512;2023-03-18T05:24:21;100670.09;;;32.02;46.93
36798;BME280;22748;8.426;99.512;2023-03-18T05:26:52;100661.88;;;32.09;46.37
36798;BME280;22748;8.426;99.512;2023-03-18T05:29:30;100662.38;;;32.17;46.41
36798;BME280;22748;8.426;99.512;2023-03-18T05:32:00;100656.88;;;32.24;45.82
36798;BME280;22748;8.426;99.512;2023-03-18T05:34:36;100652.56;;;32.35;45.90
36798;BME280;22748;8.426;99.512;2023-03-18T05:37:09;100650.34;;;32.44;45.99
36798;BME280;22748;8.426;99.512;2023-03-18T05:39:41;100647.25;;;32.40;45.31
36798;BME280;22748;8.426;99.512;2023-03-18T05:42:11;100645.31;;;32.47;45.10
36798;BME280;22748;8.426;99.512;2023-03-18T05:44:42;100633.91;;;32.57;45.05
36798;BME280;22748;8.426;99.512;2023-03-18T05:47:13;100634.28;;;32.61;44.89
36798;BME280;22748;8.426;99.512;2023-03-18T05:49:47;100625.38;;;32.60;45.36
36798;BME280;22748;8.426;99.512;2023-03-18T05:52:18;100616.78;;;32.63;45.55
36798;BME280;22748;8.426;99.512;2023-03-18T05:54:48;100612.91;;;32.71;45.14
36798;BME280;22748;8.426;99.512;2023-03-18T05:57:19;100607.00;;;32.74;44.97
36798;BME280;22748;8.426;99.512;2023-03-18T05:59:49;100608.63;;;32.75;44.75
36798;BME280;22748;8.426;99.512;2023-03-18T06:02:20;100599.94;;;32.73;44.96
36798;BME280;22748;8.426;99.512;2023-03-18T06:04:54;100597.13;;;32.68;44.78
36798;BME280;22748;8.426;99.512;2023-03-18T06:07:24;100597.63;;;32.65;44.96
36798;BME280;22748;8.426;99.512;2023-03-18T06:09:56;100596.91;;;32.69;44.70
36798;BME280;22748;8.426;99.512;2023-03-18T06:12:28;100589.84;;;32.80;44.45
36798;BME280;22748;8.426;99.512;2023-03-18T06:14:58;100580.06;;;32.79;44.07
36798;BME280;22748;8.426;99.512;2023-03-18T06:17:29;100583.38;;;32.81;44.60
36798;BME280;22748;8.426;99.512;2023-03-18T06:20:02;100583.50;;;32.86;44.70
36798;BME280;22748;8.426;99.512;2023-03-18T06:22:34;100571.00;;;32.85;44.75
36798;BME280;22748;8.426;99.512;2023-03-18T06:25:05;100566.66;;;32.96;44.04
36798;BME280;22748;8.426;99.512;2023-03-18T06:27:37;100557.00;;;33.00;44.36
36798;BME280;22748;8.426;99.512;2023-03-18T06:30:10;100554.66;;;33.04;44.25
36798;BME280;22748;8.426;99.512;2023-03-18T06:32:56;100554.06;;;33.02;44.30
36798;BME280;22748;8.426;99.512;2023-03-18T06:35:46;100540.75;;;33.00;44.83
36798;BME280;22748;8.426;99.512;2023-03-18T06:38:19;100536.16;;;33.00;44.62
36798;BME280;22748;8.426;99.512;2023-03-18T06:40:49;100529.72;;;33.02;44.81
36798;BME280;22748;8.426;99.512;2023-03-18T06:43:21;100528.63;;;33.03;44.27
36798;BME280;22748;8.426;99.512;2023-03-18T06:45:54;100521.34;;;33.03;44.61
36798;BME280;22748;8.426;99.512;2023-03-18T06:48:26;100509.94;;;33.01;44.89
36798;BME280;22748;8.426;99.512;2023-03-18T06:50:58;100505.59;;;33.00;44.73
36798;BME280;22748;8.426;99.512;2023-03-18T06:53:30;100504.50;;;33.01;44.79
36798;BME280;22748;8.426;99.512;2023-03-18T06:56:04;100492.66;;;33.02;44.46
36798;BME280;22748;8.426;99.512;2023-03-18T06:58:38;100492.88;;;33.00;45.37
36798;BME280;22748;8.426;99.512;2023-03-18T07:01:08;100481.59;;;33.04;45.39
36798;BME280;22748;8.426;99.512;2023-03-18T07:03:41;100474.66;;;33.08;45.16
36798;BME280;22748;8.426;99.512;2023-03-18T07:06:13;100471.94;;;33.08;45.25
36798;BME280;22748;8.426;99.512;2023-03-18T07:08:45;100468.53;;;33.12;44.79
36798;BME280;22748;8.426;99.512;2023-03-18T07:11:15;100465.09;;;33.17;44.41
36798;BME280;22748;8.426;99.512;2023-03-18T07:13:49;100455.44;;;33.21;44.45
36798;BME280;22748;8.426;99.512;2023-03-18T07:16:20;100454.84;;;33.19;44.67
36798;BME280;22748;8.426;99.512;2023-03-18T07:18:51;100453.78;;;33.20;44.71
36798;BME280;22748;8.426;99.512;2023-03-18T07:21:40;100454.94;;;33.24;44.58
36798;BME280;22748;8.426;99.512;2023-03-18T07:24:13;100449.38;;;33.31;44.59
36798;BME280;22748;8.426;99.512;2023-03-18T07:26:44;100439.94;;;33.33;44.59
36798;BME280;22748;8.426;99.512;2023-03-18T07:29:17;100435.75;;;33.26;45.19
36798;BME280;22748;8.426;99.512;2023-03-18T07:31:49;100427.69;;;33.14;45.51
36798;BME280;22748;8.426;99.512;2023-03-18T07:34:18;100419.94;;;33.06;45.90
36798;BME280;22748;8.426;99.512;2023-03-18T07:36:53;100409.59;;;33.03;46.48
36798;BME280;22748;8.426;99.512;2023-03-18T07:39:24;100407.69;;;33.03;46.25
36798;BME280;22748;8.426;99.512;2023-03-18T07:41:54;100404.19;;;33.03;46.33
36798;BME280;22748;8.426;99.512;2023-03-18T07:44:26;100399.28;;;32.99;46.44
36798;BME280;22748;8.426;99.512;2023-03-18T07:46:57;100397.72;;;33.04;46.49
36798;BME280;22748;8.426;99.512;2023-03-18T07:49:28;100391.03;;;33.06;46.63
36798;BME280;22748;8.426;99.512;2023-03-18T07:52:00;100395.38;;;33.07;46.90
36798;BME280;22748;8.426;99.512;2023-03-18T07:54:30;100394.63;;;33.12;46.42
36798;BME280;22748;8.426;99.512;2023-03-18T07:57:02;100388.06;;;33.08;46.37
36798;BME280;22748;8.426;99.512;2023-03-18T07:59:33;100388.66;;;33.10;46.43
36798;BME280;22748;8.426;99.512;2023-03-18T08:02:05;100386.78;;;32.98;46.71
36798;BME280;22748;8.426;99.512;2023-03-18T08:04:36;100384.19;;;33.04;46.67
36798;BME280;22748;8.426;99.512;2023-03-18T08:07:07;100388.75;;;33.03;46.79
36798;BME280;22748;8.426;99.512;2023-03-18T08:09:37;100385.81;;;33.05;46.42
36798;BME280;22748;8.426;99.512;2023-03-18T08:12:09;100382.06;;;33.06;46.53
36798;BME280;22748;8.426;99.512;2023-03-18T08:21:48;100383.34;;;33.03;47.28
36798;BME280;22748;8.426;99.512;2023-03-18T08:24:21;100370.28;;;33.12;46.76
36798;BME280;22748;8.426;99.512;2023-03-18T08:26:57;100361.13;;;33.13;46.61
36798;BME280;22748;8.426;99.512;2023-03-18T08:29:29;100364.88;;;33.12;46.82
36798;BME280;22748;8.426;99.512;2023-03-18T08:32:02;100366.53;;;33.13;47.01
36798;BME280;22748;8.426;99.512;2023-03-18T08:34:34;100364.41;;;33.15;47.25
36798;BME280;22748;8.426;99.512;2023-03-18T08:37:05;100357.69;;;33.17;47.11
36798;BME280;22748;8.426;99.512;2023-03-18T08:39:37;100363.09;;;33.17;47.12
36798;BME280;22748;8.426;99.512;2023-03-18T08:42:07;100360.63;;;33.16;47.33
36798;BME280;22748;8.426;99.512;2023-03-18T08:44:38;100358.00;;;33.21;47.15
36798;BME280;22748;8.426;99.512;2023-03-18T08:47:09;100358.00;;;33.21;47.02
36798;BME280;22748;8.426;99.512;2023-03-18T08:49:40;100362.28;;;33.17;47.14
36798;BME280;22748;8.426;99.512;2023-03-18T08:52:11;100365.56;;;33.19;46.99
36798;BME280;22748;8.426;99.512;2023-03-18T08:54:45;100362.84;;;33.19;46.73
36798;BME280;22748;8.426;99.512;2023-03-18T08:57:16;100363.91;;;33.18;47.12
36798;BME280;22748;8.426;99.512;2023-03-18T08:59:47;100360.13;;;33.19;46.76
36798;BME280;22748;8.426;99.512;2023-03-18T09:02:17;100360.44;;;33.23;46.63
36798;BME280;22748;8.426;99.512;2023-03-18T09:04:47;100356.69;;;33.24;46.42
36798;BME280;22748;8.426;99.512;2023-03-18T09:07:18;100357.91;;;33.16;46.88
36798;BME280;22748;8.426;99.512;2023-03-18T09:09:50;100347.91;;;33.16;46.49
36798;BME280;22748;8.426;99.512;2023-03-18T09:12:21;100350.94;;;33.20;46.28
36798;BME280;22748;8.426;99.512;2023-03-18T09:14:52;100353.56;;;33.15;46.43
36798;BME280;22748;8.426;99.512;2023-03-18T09:17:24;100348.00;;;33.22;46.69
36798;BME280;22748;8.426;99.512;2023-03-18T09:19:54;100350.78;;;33.27;46.35
36798;BME280;22748;8.426;99.512;2023-03-18T09:22:24;100356.53;;;33.30;46.48
36798;BME280;22748;8.426;99.512;2023-03-18T09:25:19;100355.38;;;33.26;46.36
36798;BME280;22748;8.426;99.512;2023-03-18T09:27:49;100360.78;;;33.26;46.37
36798;BME280;22748;8.426;99.512;2023-03-18T09:30:21;100355.69;;;33.13;46.30
36798;BME280;22748;8.426;99.512;2023-03-18T09:32:52;100360.88;;;33.14;46.59
36798;BME280;22748;8.426;99.512;2023-03-18T09:35:22;100361.53;;;33.22;46.32
36798;BME280;22748;8.426;99.512;2023-03-18T09:37:56;100363.44;;;33.21;46.64
36798;BME280;22748;8.426;99.512;2023-03-18T09:40:31;100368.50;;;33.17;46.73
36798;BME280;22748;8.426;99.512;2023-03-18T09:43:11;100366.72;;;33.23;46.74
36798;BME280;22748;8.426;99.512;2023-03-18T09:45:55;100362.09;;;33.24;46.94
36798;BME280;22748;8.426;99.512;2023-03-18T09:48:51;100361.28;;;33.23;46.97
36798;BME280;22748;8.426;99.512;2023-03-18T09:51:36;100360.22;;;33.24;46.99
36798;BME280;22748;8.426;99.512;2023-03-18T09:54:15;100365.56;;;33.19;46.73
36798;BME280;22748;8.426;99.512;2023-03-18T09:56:52;100365.22;;;33.15;47.08
36798;BME280;22748;8.426;99.512;2023-03-18T09:59:24;100360.13;;;33.19;46.93
36798;BME280;22748;8.426;99.512;2023-03-18T10:01:59;100360.13;;;33.19;47.16
36798;BME280;22748;8.426;99.512;2023-03-18T10:04:37;100366.47;;;32.96;47.18
36798;BME280;22748;8.426;99.512;2023-03-18T10:07:13;100360.25;;;32.95;46.83
36798;BME280;22748;8.426;99.512;2023-03-18T10:09:50;100370.25;;;32.95;46.54
36798;BME280;22748;8.426;99.512;2023-03-18T10:12:29;100359.69;;;32.82;46.78
36798;BME280;22748;8.426;99.512;2023-03-18T10:15:09;100366.84;;;32.88;46.85
36798;BME280;22748;8.426;99.512;2023-03-18T10:17:43;100372.19;;;32.83;47.03
36798;BME280;22748;8.426;99.512;2023-03-18T10:20:24;100373.47;;;32.80;46.65
36798;BME280;22748;8.426;99.512;2023-03-18T10:23:10;100373.47;;;32.80;46.93
36798;BME280;22748;8.426;99.512;2023-03-18T10:25:46;100369.63;;;32.76;46.71
36798;BME280;22748;8.426;99.512;2023-03-18T10:28:48;100371.50;;;32.75;46.74
36798;BME280;22748;8.426;99.512;2023-03-18T10:31:34;100377.94;;;32.86;46.84
36798;BME280;22748;8.426;99.512;2023-03-18T10:34:08;100377.53;;;32.94;47.34
36798;BME280;22748;8.426;99.512;2023-03-18T10:36:48;100380.34;;;32.99;46.97
36798;BME280;22748;8.426;99.512;2023-03-18T10:39:21;100380.22;;;32.94;47.04
36798;BME280;22748;8.426;99.512;2023-03-18T10:41:53;100391.16;;;32.99;47.20
36798;BME280;22748;8.426;99.512;2023-03-18T10:44:27;100392.91;;;33.06;47.12
36798;BME280;22748;8.426;99.512;2023-03-18T10:47:01;100387.66;;;33.16;47.21
36798;BME280;22748;8.426;99.512;2023-03-18T10:49:35;100392.94;;;33.23;46.92
36798;BME280;22748;8.426;99.512;2023-03-18T10:52:13;100406.81;;;33.26;46.81
36798;BME280;22748;8.426;99.512;2023-03-18T10:54:48;100398.19;;;33.29;46.85
36798;BME280;22748;8.426;99.512;2023-03-18T10:57:19;100400.31;;;33.27;46.66
36798;BME280;22748;8.426;99.512;2023-03-18T10:59:54;100403.28;;;33.26;47.24
36798;BME280;22748;8.426;99.512;2023-03-18T11:02:29;100406.22;;;33.24;47.03
36798;BME280;22748;8.426;99.512;2023-03-18T11:05:03;100411.63;;;33.24;46.94
36798;BME280;22748;8.426;99.512;2023-03-18T11:07:54;100410.00;;;33.23;46.83
36798;BME280;22748;8.426;99.512;2023-03-18T11:10:27;100418.97;;;33.12;47.09
36798;BME280;22748;8.426;99.512;2023-03-18T11:12:59;100428.09;;;32.94;47.24
36798;BME280;22748;8.426;99.512;2023-03-18T11:15:36;100426.13;;;32.89;47.20
36798;BME280;22748;8.426;99.512;2023-03-18T11:18:14;100430.38;;;32.85;47.30
36798;BME280;22748;8.426;99.512;2023-03-18T11:20:56;100433.75;;;32.92;46.78
36798;BME280;22748;8.426;99.512;2023-03-18T11:23:49;100435.88;;;32.90;46.84
36798;BME280;22748;8.426;99.512;2023-03-18T11:26:47;100433.66;;;32.87;46.81
36798;BME280;22748;8.426;99.512;2023-03-18T11:29:24;100436.44;;;32.92;46.96
36798;BME280;22748;8.426;99.512;2023-03-18T11:31:59;100434.81;;;32.91;47.17
36798;BME280;22748;8.426;99.512;2023-03-18T11:34:31;100435.97;;;32.95;47.05
36798;BME280;22748;8.426;99.512;2023-03-18T11:37:03;100443.88;;;32.97;47.24
36798;BME280;22748;8.426;99.512;2023-03-18T11:39:37;100450.09;;;32.97;46.97
36798;BME280;22748;8.426;99.512;2023-03-18T11:42:18;100456.53;;;32.96;47.41
36798;BME280;22748;8.426;99.512;2023-03-18T11:44:48;100456.31;;;32.98;47.50
36798;BME280;22748;8.426;99.512;2023-03-18T11:47:27;100455.72;;;32.96;47.44
36798;BME280;22748;8.426;99.512;2023-03-18T11:50:03;100468.44;;;32.95;47.45
36798;BME280;22748;8.426;99.512;2023-03-18T11:52:39;100475.16;;;32.93;47.63
36798;BME280;22748;8.426;99.512;2023-03-18T11:55:20;100478.09;;;32.91;47.65
36798;BME280;22748;8.426;99.512;2023-03-18T11:58:20;100481.84;;;32.90;47.70
36798;BME280;22748;8.426;99.512;2023-03-18T12:01:00;100492.13;;;32.88;47.73
36798;BME280;22748;8.426;99.512;2023-03-18T12:07:04;100495.28;;;32.85;47.58
36798;BME280;22748;8.426;99.512;2023-03-18T12:09:51;100504.22;;;32.86;47.80
36798;BME280;22748;8.426;99.512;2023-03-18T12:12:45;100515.75;;;32.81;48.26
36798;BME280;22748;8.426;99.512;2023-03-18T12:15:23;100524.34;;;32.78;48.07
36798;BME280;22748;8.426;99.512;2023-03-18T12:18:05;100531.88;;;32.76;48.19
36798;BME280;22748;8.426;99.512;2023-03-18T12:20:55;100539.50;;;32.79;48.40
36798;BME280;22748;8.426;99.512;2023-03-18T12:23:56;100543.50;;;32.76;48.25
36798;BME280;22748;8.426;99.512;2023-03-18T12:26:33;100540.00;;;32.76;48.26
36798;BME280;22748;8.426;99.512;2023-03-18T12:29:50;100550.22;;;32.74;48.20
36798;BME280;22748;8.426;99.512;2023-03-18T12:32:30;100558.91;;;32.76;48.33
36798;BME280;22748;8.426;99.512;2023-03-18T12:35:27;100552.94;;;32.74;48.41
36798;BME280;22748;8.426;99.512;2023-03-18T12:38:15;100562.94;;;32.73;48.55
36798;BME280;22748;8.426;99.512;2023-03-18T12:41:05;100566.34;;;32.69;48.48
36798;BME280;22748;8.426;99.512;2023-03-18T12:43:53;100571.75;;;32.69;48.51
36798;BME280;22748;8.426;99.512;2023-03-18T12:46:32;100573.28;;;32.65;48.32
36798;BME280;22748;8.426;99.512;2023-03-18T12:49:10;100582.44;;;32.64;48.61
36798;BME280;22748;8.426;99.512;2023-03-18T12:51:46;100590.53;;;32.64;48.74
36798;BME280;22748;8.426;99.512;2023-03-18T12:54:22;100599.47;;;32.64;48.31
36798;BME280;22748;8.426;99.512;2023-03-18T12:57:03;100599.97;;;32.61;48.69
36798;BME280;22748;8.426;99.512;2023-03-18T12:59:39;100605.59;;;32.59;48.25
36798;BME280;22748;8.426;99.512;2023-03-18T13:02:39;100616.88;;;32.56;48.64
36798;BME280;22748;8.426;99.512;2023-03-18T13:05:22;100613.13;;;32.57;48.65
36798;BME280;22748;8.426;99.512;2023-03-18T13:08:15;100616.06;;;32.56;48.52
36798;BME280;22748;8.426;99.512;2023-03-18T13:10:57;100617.13;;;32.55;48.72
36798;BME280;22748;8.426;99.512;2023-03-18T13:13:38;100629.81;;;32.54;48.59
36798;BME280;22748;8.426;99.512;2023-03-18T13:16:12;100639.00;;;32.53;48.94
36798;BME280;22748;8.426;99.512;2023-03-18T13:18:45;100642.75;;;32.52;49.06
36798;BME280;22748;8.426;99.512;2023-03-18T13:21:21;100643.56;;;32.53;49.21
36798;BME280;22748;8.426;99.512;2023-03-18T13:24:06;100657.28;;;32.51;49.32
36798;BME280;22748;8.426;99.512;2023-03-18T13:27:10;100650.22;;;32.50;49.70
36798;BME280;22748;8.426;99.512;2023-03-18T13:29:53;100658.34;;;32.50;49.82
36798;BME280;22748;8.426;99.512;2023-03-18T13:32:51;100660.34;;;32.43;49.85
36798;BME280;22748;8.426;99.512;2023-03-18T13:35:41;100677.00;;;32.40;50.32
36798;BME280;22748;8.426;99.512;2023-03-18T13:38:57;100686.19;;;32.39;50.60
36798;BME280;22748;8.426;99.512;2023-03-18T13:41:52;100685.09;;;32.40;50.59
36798;BME280;22748;8.426;99.512;2023-03-18T13:44:34;100694.88;;;32.41;50.59
36798;BME280;22748;8.426;99.512;2023-03-18T13:47:15;100703.00;;;32.41;50.71